Terminal Aerodrome Forecast
Issued by NWS Bismarck, ND

Home | Current Version | Previous Version | Text Only | Print | Product List | Glossary On
Versions: 1 2 3 4 5 6 7 8 9 10 11 12 13 14
000
FTUS43 KBIS 012343 CCA
TAFISN
TAF COR
KISN 012343Z 0200/0224 32009KT P6SM SCT050
     FM020400 05010KT P6SM -SHRA VCTS BKN050CB
      TEMPO 0210/0214 3SM TSRA BKN045CB
     FM021500 04012KT P6SM -SHRA BKN060=

USA.gov is the U.S. government's official web portal to all federal, state and local government web resources and services.